Airfield :
LOGIN :

Register | Disclaimer

   EN    FR    IT 

 










Legend :    VFR   Marginal VFR   IFR   Intensive IFR   Very Intensive IFR
Visi :
Ceiling :
>= 8 km
>= 3000ft
5 to 8 km
1000 to 3000 ft
1500m to 5 km
500 to 1000 ft
800 to 1500m
200 to 500 ft
< 800m
< 200 ft
Symbols :   Thunderstorms  Fog  Heavy snow  Heavy precipitations  Wind > 20 kt
SIGMETs :     Misc.  Thunderstorms  Icing  Turbulence  Mountain Waves  Volcanic Ashes







- Airport Elevation : 194 ft
- IATA code : IEG


EPZG - Zielona Gora Babimost

CURRENT METAR :
  • 211000Z 03006KT 2700 BR OVC004 M00/M00 Q1012

EXPIRED METARs :
  • 210930Z 05007KT 2600 BR OVC004 M00/M00 Q1011
  • 210900Z 02007KT 2300 BR OVC004 M00/M00 Q1011
  • 210830Z 01005KT 340V040 1700 BR OVC004 M00/M00 Q1010
  • 210800Z 02007KT 1800 -SN BR OVC003 M00/M00 Q1009
  • 210730Z 02007KT 1800 -SN BR OVC004 M01/M01 Q1009

TAF TAF EPZG
Valid from the 21 at 09:00 until the 21 at 18:00 UTC


210830Z 2109/2118 02008KT 1400 BR OVC003
BECMG 2109/2112 3500 BR BKN006
TEMPO 2112/2118 6000 SCT011
No reported NOTAMs for that airfield.



MET'MAP, your aeronautical weather chart ! - Copyright ORBIFLY December 2007 - Disclaimer

ORBIFLY MET'MAP TEAM :

Programming & Development : Alexandra Zaïnal
Concept & Development : Baudouin d'Aumeries
Co-Development & Prog : Marc-Olivier Méhu
Technical & hardware support : Manuel Goepfert

Contact : metmap@orbifly.com




SOURCES & CREDITS :

   NOAA